createdAt,value
2022-07-26T00:01:21.996Z,101412.06
2022-07-26T00:03:49.454Z,101410.09
2022-07-26T00:06:16.582Z,101417.31
2022-07-26T00:08:45.738Z,101418.25
2022-07-26T00:11:12.768Z,101421.47
2022-07-26T00:13:39.863Z,101423.78
2022-07-26T00:16:06.650Z,101416.56
2022-07-26T00:18:33.580Z,101424.09
2022-07-26T00:21:00.365Z,101424.50
2022-07-26T00:23:27.978Z,101429.94
2022-07-26T00:25:54.721Z,101436.00
2022-07-26T00:28:21.643Z,101428.50
2022-07-26T00:30:48.303Z,101426.72
2022-07-26T00:33:15.230Z,101435.56
2022-07-26T00:35:41.891Z,101439.03
2022-07-26T00:38:08.592Z,101423.06
2022-07-26T00:40:35.952Z,101419.91
2022-07-26T00:43:02.678Z,101425.53
2022-07-26T00:45:29.542Z,101427.97
2022-07-26T00:47:56.270Z,101434.34
2022-07-26T00:50:22.981Z,101434.44
2022-07-26T00:52:50.096Z,101438.84
2022-07-26T00:55:17.457Z,101437.06
2022-07-26T00:57:44.413Z,101437.06
2022-07-26T01:00:12.977Z,101436.63
2022-07-26T01:02:39.752Z,101435.56
2022-07-26T01:05:07.149Z,101440.28
2022-07-26T01:07:34.090Z,101430.38
2022-07-26T01:10:01.933Z,101435.56
2022-07-26T01:12:28.590Z,101432.88
2022-07-26T01:14:55.271Z,101430.47
2022-07-26T01:17:21.917Z,101434.13
2022-07-26T01:19:48.562Z,101420.75
2022-07-26T01:22:15.574Z,101429.94
2022-07-26T01:24:42.659Z,101443.94
2022-07-26T01:27:09.370Z,101431.41
2022-07-26T01:29:36.420Z,101428.25
2022-07-26T01:32:05.192Z,101439.03
2022-07-26T01:34:32.156Z,101437.34
2022-07-26T01:36:58.876Z,101436.03
2022-07-26T01:39:25.493Z,101435.69
2022-07-26T01:41:53.399Z,101442.16
2022-07-26T01:44:20.274Z,101443.63
2022-07-26T01:46:46.981Z,101447.50
2022-07-26T01:49:13.697Z,101449.66
2022-07-26T01:51:40.398Z,101446.00
2022-07-26T01:54:07.482Z,101456.56
2022-07-26T01:56:34.385Z,101452.69
2022-07-26T01:59:01.175Z,101451.03
2022-07-26T02:01:39.058Z,101455.31
2022-07-26T02:04:07.444Z,101446.75
2022-07-26T02:06:34.431Z,101447.38
2022-07-26T02:09:01.907Z,101448.94
2022-07-26T02:11:29.081Z,101457.72
2022-07-26T02:13:55.710Z,101456.56
2022-07-26T02:16:22.446Z,101456.03
2022-07-26T02:18:49.190Z,101455.84
2022-07-26T02:21:15.819Z,101453.63
2022-07-26T02:23:42.616Z,101461.78
2022-07-26T02:26:09.363Z,101465.13
2022-07-26T02:28:36.111Z,101457.91
2022-07-26T02:31:03.027Z,101459.16
2022-07-26T02:33:29.742Z,101462.91
2022-07-26T02:35:56.477Z,101467.81
2022-07-26T02:38:23.119Z,101457.81
2022-07-26T02:40:52.911Z,101462.72
2022-07-26T02:43:20.103Z,101471.19
2022-07-26T02:46:01.962Z,101465.00
2022-07-26T02:48:31.063Z,101482.16
2022-07-26T02:50:57.895Z,101467.97
2022-07-26T02:53:24.531Z,101473.59
2022-07-26T02:55:51.223Z,101465.34
2022-07-26T02:58:17.991Z,101474.28
2022-07-26T03:00:44.753Z,101477.66
2022-07-26T03:05:41.147Z,101478.16
2022-07-26T03:08:07.816Z,101486.59
2022-07-26T03:10:34.547Z,101488.63
2022-07-26T03:13:01.248Z,101484.72
2022-07-26T03:15:28.020Z,101484.63
2022-07-26T03:17:55.507Z,101484.88
2022-07-26T03:20:22.181Z,101495.50
2022-07-26T03:22:48.901Z,101495.69
2022-07-26T03:25:15.582Z,101505.28
2022-07-26T03:27:42.229Z,101501.75
2022-07-26T03:30:09.188Z,101504.91
2022-07-26T03:32:35.852Z,101504.44
2022-07-26T03:35:02.566Z,101505.53
2022-07-26T03:37:45.793Z,101509.56
2022-07-26T03:40:13.331Z,101523.25
2022-07-26T03:42:40.137Z,101516.06
2022-07-26T03:45:07.121Z,101514.91
2022-07-26T03:47:33.841Z,101525.34
2022-07-26T03:50:00.561Z,101512.09
2022-07-26T03:52:27.200Z,101521.97
2022-07-26T03:54:53.857Z,101521.16
2022-07-26T03:57:20.572Z,101521.25
2022-07-26T03:59:47.205Z,101521.16
2022-07-26T04:02:13.923Z,101528.88
2022-07-26T04:04:40.684Z,101527.75
2022-07-26T04:07:09.410Z,101528.56
2022-07-26T04:09:36.254Z,101528.06
2022-07-26T04:12:03.139Z,101530.84
2022-07-26T04:14:30.013Z,101523.97
2022-07-26T04:16:56.857Z,101523.84
2022-07-26T04:19:32.144Z,101524.06
2022-07-26T04:21:59.088Z,101527.63
2022-07-26T04:24:26.017Z,101527.00
2022-07-26T04:26:52.856Z,101526.56
2022-07-26T04:29:25.991Z,101531.38
2022-07-26T04:31:53.077Z,101534.09
2022-07-26T04:34:19.865Z,101540.56
2022-07-26T04:36:46.664Z,101547.00
2022-07-26T04:39:13.454Z,101550.94
2022-07-26T04:41:40.416Z,101550.72
2022-07-26T04:44:07.442Z,101556.50
2022-07-26T04:46:34.574Z,101566.72
2022-07-26T04:49:01.465Z,101563.19
2022-07-26T04:51:28.327Z,101562.44
2022-07-26T04:53:55.086Z,101566.94
2022-07-26T04:56:21.942Z,101559.84
2022-07-26T04:58:48.726Z,101575.41
2022-07-26T05:01:15.544Z,101566.41
2022-07-26T05:03:42.429Z,101582.16
2022-07-26T05:06:09.600Z,101572.31
2022-07-26T05:08:36.420Z,101575.94
2022-07-26T05:11:04.402Z,101579.25
2022-07-26T05:13:31.282Z,101590.63
2022-07-26T05:15:59.512Z,101589.91
2022-07-26T05:18:26.825Z,101599.63
2022-07-26T05:20:53.534Z,101593.13
2022-07-26T05:23:20.726Z,101595.03
2022-07-26T05:25:47.911Z,101594.81
2022-07-26T05:28:14.942Z,101597.97
2022-07-26T05:30:41.822Z,101600.22
2022-07-26T05:33:08.763Z,101606.00
2022-07-26T05:35:35.588Z,101614.63
2022-07-26T05:38:02.592Z,101612.66
2022-07-26T05:40:29.287Z,101614.63
2022-07-26T05:42:56.008Z,101610.25
2022-07-26T05:45:22.763Z,101609.75
2022-07-26T05:47:50.572Z,101614.75
2022-07-26T05:50:17.375Z,101614.19
2022-07-26T05:52:44.402Z,101618.91
2022-07-26T05:55:11.068Z,101622.28
2022-07-26T05:57:41.653Z,101617.47
2022-07-26T06:00:09.177Z,101617.69
2022-07-26T06:02:35.945Z,101613.69
2022-07-26T06:05:02.905Z,101615.81
2022-07-26T06:07:29.517Z,101616.44
2022-07-26T06:09:56.570Z,101622.75
2022-07-26T06:12:23.227Z,101629.75
2022-07-26T06:14:49.952Z,101626.38
2022-07-26T06:17:16.883Z,101626.00
2022-07-26T06:19:47.602Z,101632.56
2022-07-26T06:22:14.962Z,101638.56
2022-07-26T06:24:41.645Z,101627.06
2022-07-26T06:27:08.394Z,101630.69
2022-07-26T06:29:35.089Z,101628.06
2022-07-26T06:32:01.922Z,101634.75
2022-07-26T06:34:28.984Z,101642.38
2022-07-26T06:36:55.750Z,101632.28
2022-07-26T06:39:34.665Z,101633.78
2022-07-26T06:42:01.623Z,101642.84
2022-07-26T06:44:28.341Z,101647.00
2022-07-26T06:46:55.289Z,101649.31
2022-07-26T06:49:35.912Z,101646.66
2022-07-26T06:52:03.040Z,101651.84
2022-07-26T06:54:29.970Z,101650.38
2022-07-26T06:56:57.167Z,101661.78
2022-07-26T06:59:33.960Z,101663.53
2022-07-26T07:02:02.112Z,101666.66
2022-07-26T07:04:30.036Z,101666.59
2022-07-26T07:06:58.427Z,101672.44
2022-07-26T07:09:33.195Z,101671.91
2022-07-26T07:12:08.786Z,101681.81
2022-07-26T07:14:38.007Z,101681.28
2022-07-26T07:17:12.073Z,101674.25
2022-07-26T07:19:42.468Z,101676.50
2022-07-26T07:22:12.657Z,101685.72
2022-07-26T07:24:40.205Z,101686.84
2022-07-26T07:27:06.922Z,101692.25
2022-07-26T07:29:37.535Z,101695.06
2022-07-26T07:32:05.086Z,101696.88
2022-07-26T07:34:32.817Z,101693.41
2022-07-26T07:37:00.351Z,101691.56
2022-07-26T07:39:38.758Z,101698.03
2022-07-26T07:42:07.135Z,101693.53
2022-07-26T07:44:34.304Z,101693.31
2022-07-26T07:47:02.525Z,101689.13
2022-07-26T07:49:37.977Z,101685.94
2022-07-26T07:52:05.978Z,101690.25
2022-07-26T07:54:33.100Z,101691.34
2022-07-26T07:56:59.831Z,101681.13
2022-07-26T07:59:37.056Z,101679.25
2022-07-26T08:02:06.524Z,101686.53
2022-07-26T08:04:33.632Z,101681.97
2022-07-26T08:07:00.335Z,101687.69
2022-07-26T08:09:35.383Z,101698.03
2022-07-26T08:12:03.132Z,101694.34
2022-07-26T08:14:30.428Z,101700.81
2022-07-26T08:16:57.288Z,101689.84
2022-07-26T08:19:41.685Z,101696.34
2022-07-26T08:22:09.174Z,101701.38
2022-07-26T08:24:36.115Z,101700.03
2022-07-26T08:27:02.869Z,101701.16
2022-07-26T08:29:35.507Z,101705.66
2022-07-26T08:32:02.278Z,101702.50
2022-07-26T08:34:29.015Z,101704.84
2022-07-26T08:37:16.085Z,101708.47
2022-07-26T08:39:42.611Z,101708.66
2022-07-26T08:42:13.287Z,101708.69
2022-07-26T08:44:41.981Z,101706.97
2022-07-26T08:47:10.701Z,101707.59
2022-07-26T08:49:39.109Z,101704.38
2022-07-26T08:52:06.072Z,101704.91
2022-07-26T08:54:33.678Z,101716.56
2022-07-26T08:57:00.841Z,101724.72
2022-07-26T08:59:35.953Z,101723.66
2022-07-26T09:02:04.265Z,101714.81
2022-07-26T09:04:33.237Z,101715.72
2022-07-26T09:07:08.359Z,101712.09
2022-07-26T09:09:37.337Z,101713.38
2022-07-26T09:12:14.875Z,101727.16
2022-07-26T09:14:41.984Z,101730.91
2022-07-26T09:17:08.702Z,101727.25
2022-07-26T09:19:36.905Z,101733.38
2022-07-26T09:22:10.188Z,101740.72
2022-07-26T09:24:47.115Z,101736.53
2022-07-26T09:27:15.691Z,101738.72
2022-07-26T09:29:46.826Z,101735.38
2022-07-26T09:32:17.383Z,101734.22
2022-07-26T09:34:53.009Z,101739.56
2022-07-26T09:37:32.917Z,101740.72
2022-07-26T09:40:00.576Z,101738.72
2022-07-26T09:42:29.513Z,101741.25
2022-07-26T09:44:57.522Z,101738.72
2022-07-26T09:47:36.218Z,101741.00
2022-07-26T09:50:18.193Z,101737.28
2022-07-26T09:53:02.396Z,101740.84
2022-07-26T09:55:39.284Z,101735.50
2022-07-26T09:58:14.399Z,101741.53
2022-07-26T10:00:41.664Z,101744.81
2022-07-26T10:03:08.854Z,101744.38
2022-07-26T10:05:36.648Z,101745.72
2022-07-26T10:08:03.511Z,101743.97
2022-07-26T10:10:30.323Z,101740.63
2022-07-26T10:12:58.098Z,101753.34
2022-07-26T10:15:35.826Z,101745.88
2022-07-26T10:18:03.359Z,101745.34
2022-07-26T10:20:40.442Z,101748.78
2022-07-26T10:25:34.185Z,101761.19
2022-07-26T10:28:00.898Z,101753.88
2022-07-26T10:30:34.480Z,101759.97
2022-07-26T10:33:03.283Z,101759.16
2022-07-26T10:35:41.999Z,101756.34
2022-07-26T10:38:10.639Z,101748.38
2022-07-26T10:40:38.629Z,101756.00
2022-07-26T10:43:40.266Z,101751.50
2022-07-26T10:46:13.596Z,101757.69
2022-07-26T10:49:00.892Z,101764.84
2022-07-26T10:51:29.851Z,101766.84
2022-07-26T10:54:01.078Z,101762.47
2022-07-26T10:56:32.858Z,101768.97
2022-07-26T10:59:00.645Z,101754.94
2022-07-26T11:01:34.606Z,101762.25
2022-07-26T11:04:02.134Z,101757.53
2022-07-26T11:06:33.216Z,101758.22
2022-07-26T11:09:09.668Z,101766.13
2022-07-26T11:11:36.444Z,101760.72
2022-07-26T11:14:13.884Z,101760.50
2022-07-26T11:16:42.705Z,101763.31
2022-07-26T11:19:28.258Z,101759.16
2022-07-26T11:21:57.510Z,101750.28
2022-07-26T11:24:24.410Z,101755.41
2022-07-26T11:26:51.333Z,101755.09
2022-07-26T11:29:39.025Z,101752.59
2022-07-26T11:32:18.050Z,101753.66
2022-07-26T11:34:45.923Z,101754.78
2022-07-26T11:37:13.565Z,101750.28
2022-07-26T11:39:46.762Z,101756.56
2022-07-26T11:42:15.313Z,101760.50
2022-07-26T11:44:46.261Z,101759.97
2022-07-26T11:47:13.828Z,101763.03
2022-07-26T11:50:00.072Z,101764.69
2022-07-26T11:52:32.119Z,101761.78
2022-07-26T11:54:59.728Z,101764.47
2022-07-26T11:57:31.078Z,101752.91
2022-07-26T11:59:58.665Z,101749.78
2022-07-26T12:02:26.579Z,101761.34
2022-07-26T12:05:13.115Z,101762.25
2022-07-26T12:07:52.572Z,101760.81
2022-07-26T12:10:19.748Z,101769.72
2022-07-26T12:12:47.115Z,101760.66
2022-07-26T12:15:15.837Z,101761.28
2022-07-26T12:18:02.890Z,101768.19
2022-07-26T12:20:30.130Z,101766.91
2022-07-26T12:23:06.616Z,101763.47
2022-07-26T12:25:36.308Z,101768.81
2022-07-26T12:28:03.214Z,101766.00
2022-07-26T12:30:35.193Z,101767.28
2022-07-26T12:33:02.424Z,101775.66
2022-07-26T12:35:32.462Z,101774.81
2022-07-26T12:37:59.743Z,101766.00
2022-07-26T12:40:27.606Z,101778.94
2022-07-26T12:43:00.818Z,101773.75
2022-07-26T12:45:29.182Z,101774.13
2022-07-26T12:47:56.895Z,101773.38
2022-07-26T12:50:25.248Z,101779.63
2022-07-26T12:52:52.581Z,101775.22
2022-07-26T12:55:21.777Z,101782.44
2022-07-26T12:57:49.673Z,101780.78
2022-07-26T13:00:24.415Z,101782.97
2022-07-26T13:02:56.171Z,101777.28
2022-07-26T13:05:23.799Z,101777.97
2022-07-26T13:07:52.378Z,101774.31
2022-07-26T13:10:32.931Z,101766.69
2022-07-26T13:13:00.875Z,101767.75
2022-07-26T13:15:37.335Z,101768.34
2022-07-26T13:20:31.649Z,101766.44
2022-07-26T13:23:00.436Z,101770.16
2022-07-26T13:25:28.952Z,101772.16
2022-07-26T13:30:27.912Z,101772.41
2022-07-26T13:32:54.660Z,101765.59
2022-07-26T13:35:21.337Z,101758.06
2022-07-26T13:37:48.302Z,101757.69
2022-07-26T13:40:15.327Z,101766.69
2022-07-26T13:42:42.040Z,101761.06
2022-07-26T13:45:08.989Z,101759.66
2022-07-26T13:47:35.692Z,101761.28
2022-07-26T13:50:03.613Z,101764.94
2022-07-26T13:52:30.259Z,101758.97
2022-07-26T13:54:56.925Z,101751.06
2022-07-26T13:57:23.572Z,101758.13
2022-07-26T14:00:11.060Z,101755.63
2022-07-26T14:02:38.185Z,101758.38
2022-07-26T14:05:05.041Z,101755.00
2022-07-26T14:07:31.724Z,101751.06
2022-07-26T14:09:58.431Z,101745.41
2022-07-26T14:12:25.452Z,101752.19
2022-07-26T14:14:52.474Z,101753.88
2022-07-26T14:17:19.208Z,101743.75
2022-07-26T14:19:45.881Z,101746.25
2022-07-26T14:22:14.043Z,101741.75
2022-07-26T14:24:41.158Z,101735.50
2022-07-26T14:27:07.837Z,101740.00
2022-07-26T14:29:36.940Z,101742.53
2022-07-26T14:32:04.058Z,101742.44
2022-07-26T14:34:30.858Z,101737.09
2022-07-26T14:36:57.559Z,101741.28
2022-07-26T14:39:34.722Z,101743.81
2022-07-26T14:42:01.701Z,101739.56
2022-07-26T14:44:29.064Z,101742.38
2022-07-26T14:46:55.711Z,101748.00
2022-07-26T14:49:34.084Z,101743.72
2022-07-26T14:52:01.248Z,101743.72
2022-07-26T14:54:27.936Z,101743.19
2022-07-26T14:56:54.658Z,101737.25
2022-07-26T14:59:33.760Z,101740.34
2022-07-26T15:02:05.230Z,101740.91
2022-07-26T15:04:32.434Z,101743.44
2022-07-26T15:06:59.759Z,101740.34
2022-07-26T15:09:35.151Z,101744.47
2022-07-26T15:12:02.214Z,101741.97
2022-07-26T15:14:29.383Z,101739.22
2022-07-26T15:16:56.151Z,101740.06
2022-07-26T15:19:35.703Z,101734.34
2022-07-26T15:22:02.931Z,101736.78
2022-07-26T15:24:29.637Z,101727.06
2022-07-26T15:26:56.497Z,101732.06
2022-07-26T15:29:34.636Z,101734.56
2022-07-26T15:32:01.709Z,101734.13
2022-07-26T15:34:28.521Z,101733.50
2022-07-26T15:36:55.234Z,101731.09
2022-07-26T15:39:31.288Z,101729.84
2022-07-26T15:42:05.446Z,101724.59
2022-07-26T15:44:34.358Z,101722.22
2022-07-26T15:47:01.059Z,101726.72
2022-07-26T15:49:31.960Z,101725.72
2022-07-26T15:51:59.309Z,101722.97
2022-07-26T15:54:26.716Z,101721.00
2022-07-26T15:56:53.421Z,101723.34
2022-07-26T15:59:28.445Z,101721.28
2022-07-26T16:01:55.134Z,101730.06
2022-07-26T16:04:21.828Z,101716.88
2022-07-26T16:06:48.618Z,101717.00
2022-07-26T16:09:17.851Z,101716.88
2022-07-26T16:11:49.148Z,101718.44
2022-07-26T16:14:16.713Z,101714.31
2022-07-26T16:16:44.201Z,101712.16
2022-07-26T16:19:11.658Z,101712.91
2022-07-26T16:21:38.867Z,101712.00
2022-07-26T16:24:07.500Z,101715.03
2022-07-26T16:26:35.038Z,101709.72
2022-07-26T16:29:02.381Z,101711.41
2022-07-26T16:31:29.934Z,101704.16
2022-07-26T16:33:56.985Z,101706.78
2022-07-26T16:36:24.099Z,101704.47
2022-07-26T16:38:50.852Z,101705.50
2022-07-26T16:41:17.625Z,101707.28
2022-07-26T16:43:44.478Z,101694.56
2022-07-26T16:46:11.278Z,101696.34
2022-07-26T16:48:38.496Z,101694.72
2022-07-26T16:51:05.378Z,101697.47
2022-07-26T16:53:32.148Z,101699.38
2022-07-26T16:55:59.146Z,101698.44
2022-07-26T16:58:25.905Z,101692.88
2022-07-26T17:00:53.037Z,101696.00
2022-07-26T17:03:19.937Z,101698.06
2022-07-26T17:05:47.752Z,101693.34
2022-07-26T17:08:14.730Z,101697.25
2022-07-26T17:10:41.880Z,101702.34
2022-07-26T17:13:09.064Z,101693.69
2022-07-26T17:15:35.811Z,101697.63
2022-07-26T17:18:02.703Z,101692.53
2022-07-26T17:20:29.444Z,101697.84
2022-07-26T17:22:56.144Z,101699.31
2022-07-26T17:25:22.847Z,101697.63
2022-07-26T17:27:51.297Z,101702.44
2022-07-26T17:30:18.208Z,101699.31
2022-07-26T17:32:44.968Z,101704.34
2022-07-26T17:35:11.988Z,101700.38
2022-07-26T17:37:39.989Z,101705.16
2022-07-26T17:40:08.192Z,101705.72
2022-07-26T17:42:36.182Z,101708.88
2022-07-26T17:45:03.480Z,101706.16
2022-07-26T17:47:30.863Z,101713.38
2022-07-26T17:50:26.328Z,101720.06
2022-07-26T17:52:49.158Z,101707.63
2022-07-26T17:55:16.050Z,101704.16
2022-07-26T17:57:42.743Z,101704.78
2022-07-26T18:00:09.830Z,101706.16
2022-07-26T18:02:36.490Z,101694.94
2022-07-26T18:05:03.583Z,101700.59
2022-07-26T18:07:30.715Z,101694.56
2022-07-26T18:09:57.605Z,101700.59
2022-07-26T18:12:24.539Z,101700.38
2022-07-26T18:14:51.282Z,101707.16
2022-07-26T18:17:17.928Z,101698.69
2022-07-26T18:19:44.971Z,101703.94
2022-07-26T18:22:11.602Z,101702.66
2022-07-26T18:24:38.309Z,101705.78
2022-07-26T18:27:05.143Z,101716.44
2022-07-26T18:29:32.679Z,101715.53
2022-07-26T18:32:01.621Z,101705.16
2022-07-26T18:34:28.755Z,101704.53
2022-07-26T18:36:55.534Z,101715.09
2022-07-26T18:39:32.971Z,101715.09
2022-07-26T18:42:00.387Z,101715.41
2022-07-26T18:44:27.167Z,101721.78
2022-07-26T18:46:56.306Z,101711.88
2022-07-26T18:49:31.517Z,101719.28
2022-07-26T18:52:04.098Z,101721.38
2022-07-26T18:54:35.488Z,101725.66
2022-07-26T18:57:02.155Z,101725.88
2022-07-26T18:59:31.329Z,101729.41
2022-07-26T19:02:00.213Z,101729.09
2022-07-26T19:04:27.521Z,101734.81
2022-07-26T19:06:57.562Z,101738.16
2022-07-26T19:09:30.847Z,101740.69
2022-07-26T19:11:57.702Z,101738.63
2022-07-26T19:14:24.540Z,101736.31
2022-07-26T19:16:51.521Z,101735.47
2022-07-26T19:19:18.728Z,101735.47
2022-07-26T19:21:47.550Z,101735.88
2022-07-26T19:24:14.597Z,101739.84
2022-07-26T19:26:41.453Z,101740.56
2022-07-26T19:29:08.644Z,101740.56
2022-07-26T19:31:35.672Z,101739.94
2022-07-26T19:34:03.833Z,101740.00
2022-07-26T19:36:30.686Z,101754.50
2022-07-26T19:38:57.780Z,101745.13
2022-07-26T19:41:24.945Z,101744.59
2022-07-26T19:43:51.787Z,101749.31
2022-07-26T19:46:18.745Z,101749.00
2022-07-26T19:48:45.710Z,101748.94
2022-07-26T19:51:12.686Z,101746.00
2022-07-26T19:53:39.467Z,101757.75
2022-07-26T19:56:06.527Z,101762.00
2022-07-26T19:58:33.567Z,101766.19
2022-07-26T20:01:00.804Z,101767.63
2022-07-26T20:03:27.702Z,101764.09
2022-07-26T20:05:56.035Z,101769.09
2022-07-26T20:08:23.066Z,101785.47
2022-07-26T20:10:50.176Z,101778.19
2022-07-26T20:13:16.994Z,101781.84
2022-07-26T20:15:43.904Z,101779.59
2022-07-26T20:18:10.791Z,101784.72
2022-07-26T20:20:37.503Z,101783.06
2022-07-26T20:23:06.248Z,101782.13
2022-07-26T20:25:35.607Z,101781.59
2022-07-26T20:28:02.315Z,101788.97
2022-07-26T20:30:29.189Z,101790.66
2022-07-26T20:32:55.934Z,101797.22
2022-07-26T20:35:22.593Z,101798.81
2022-07-26T20:37:49.217Z,101798.06
2022-07-26T20:40:18.007Z,101799.75
2022-07-26T20:42:45.338Z,101800.25
2022-07-26T20:45:14.455Z,101803.31
2022-07-26T20:47:41.849Z,101808.88
2022-07-26T20:50:09.055Z,101800.81
2022-07-26T20:52:35.967Z,101805.91
2022-07-26T20:55:02.726Z,101814.97
2022-07-26T20:57:29.520Z,101809.03
2022-07-26T20:59:56.159Z,101818.84
2022-07-26T21:02:22.881Z,101821.13
2022-07-26T21:04:49.598Z,101823.94
2022-07-26T21:07:16.398Z,101831.28
2022-07-26T21:09:43.108Z,101832.66
2022-07-26T21:12:09.938Z,101831.88
2022-07-26T21:14:36.628Z,101833.03
2022-07-26T21:17:06.617Z,101839.28
2022-07-26T21:19:36.409Z,101836.97
2022-07-26T21:22:03.085Z,101839.28
2022-07-26T21:24:29.773Z,101838.81
2022-07-26T21:26:56.553Z,101846.28
2022-07-26T21:29:28.024Z,101848.56
2022-07-26T21:31:54.726Z,101850.00
2022-07-26T21:34:21.468Z,101848.31
2022-07-26T21:36:48.145Z,101847.81
2022-07-26T21:39:14.994Z,101856.50
2022-07-26T21:41:41.791Z,101849.50
2022-07-26T21:44:08.466Z,101853.44
2022-07-26T21:46:35.178Z,101852.31
2022-07-26T21:49:02.386Z,101852.88
2022-07-26T21:51:29.045Z,101856.03
2022-07-26T21:53:55.749Z,101853.72
2022-07-26T21:56:22.448Z,101852.31
2022-07-26T21:58:49.084Z,101853.44
2022-07-26T22:01:15.965Z,101851.53
2022-07-26T22:03:42.915Z,101854.72
2022-07-26T22:06:09.935Z,101860.50
2022-07-26T22:08:37.281Z,101858.00
2022-07-26T22:11:04.353Z,101865.56
2022-07-26T22:13:31.093Z,101847.88
2022-07-26T22:15:57.762Z,101856.94
2022-07-26T22:18:24.492Z,101860.81
2022-07-26T22:20:51.254Z,101860.69
2022-07-26T22:23:18.262Z,101869.16
2022-07-26T22:25:45.329Z,101867.97
2022-07-26T22:28:12.716Z,101869.97
2022-07-26T22:30:45.629Z,101870.72
2022-07-26T22:33:12.563Z,101876.66
2022-07-26T22:35:39.359Z,101874.75
2022-07-26T22:40:33.242Z,101873.00
2022-07-26T22:43:00.073Z,101867.06
2022-07-26T22:45:27.312Z,101866.53
2022-07-26T22:47:55.892Z,101867.66
2022-07-26T22:50:23.008Z,101874.81
2022-07-26T22:52:49.776Z,101874.50
2022-07-26T22:55:16.622Z,101877.25
2022-07-26T22:57:44.418Z,101876.19
2022-07-26T23:00:12.046Z,101870.53
2022-07-26T23:05:06.316Z,101873.91
2022-07-26T23:07:33.883Z,101871.03
2022-07-26T23:12:27.428Z,101876.50
2022-07-26T23:14:54.155Z,101871.09
2022-07-26T23:17:20.888Z,101878.16
2022-07-26T23:19:47.756Z,101875.00
2022-07-26T23:22:14.850Z,101871.16
2022-07-26T23:24:43.559Z,101869.69
2022-07-26T23:27:10.612Z,101865.22
2022-07-26T23:29:37.306Z,101877.41
2022-07-26T23:32:04.528Z,101870.94
2022-07-26T23:34:31.295Z,101871.69
2022-07-26T23:36:57.931Z,101876.19
2022-07-26T23:39:27.177Z,101875.72
2022-07-26T23:41:53.882Z,101870.03
2022-07-26T23:44:20.624Z,101875.88
2022-07-26T23:46:47.391Z,101871.38
2022-07-26T23:49:14.688Z,101882.50
2022-07-26T23:51:41.645Z,101873.81
2022-07-26T23:54:08.345Z,101882.50
2022-07-26T23:56:34.980Z,101885.84
2022-07-26T23:59:02.048Z,101885.31
